sensor_id;sensor_type;location;lat;lon;timestamp;temperature;humidity
47162;DHT22;32921;53.256;8.198;2023-07-13T00:01:30;13.40;99.90
47162;DHT22;32921;53.256;8.198;2023-07-13T00:03:57;13.40;99.90
47162;DHT22;32921;53.256;8.198;2023-07-13T00:06:23;13.60;99.90
47162;DHT22;32921;53.256;8.198;2023-07-13T00:08:48;13.50;99.90
47162;DHT22;32921;53.256;8.198;2023-07-13T00:11:15;13.60;99.90
47162;DHT22;32921;53.256;8.198;2023-07-13T00:13:42;13.60;99.90
47162;DHT22;32921;53.256;8.198;2023-07-13T00:16:09;13.60;99.90
47162;DHT22;32921;53.256;8.198;2023-07-13T00:18:36;13.60;99.90
47162;DHT22;32921;53.256;8.198;2023-07-13T00:21:02;13.60;99.90
47162;DHT22;32921;53.256;8.198;2023-07-13T00:23:35;13.50;99.90
47162;DHT22;32921;53.256;8.198;2023-07-13T00:26:03;13.60;99.90
47162;DHT22;32921;53.256;8.198;2023-07-13T00:28:29;13.60;99.90
47162;DHT22;32921;53.256;8.198;2023-07-13T00:30:55;13.50;99.90
47162;DHT22;32921;53.256;8.198;2023-07-13T00:33:21;13.60;99.90
47162;DHT22;32921;53.256;8.198;2023-07-13T00:35:48;13.50;99.90
47162;DHT22;32921;53.256;8.198;2023-07-13T00:38:14;13.50;99.90
47162;DHT22;32921;53.256;8.198;2023-07-13T00:40:40;13.60;99.90
47162;DHT22;32921;53.256;8.198;2023-07-13T00:43:18;13.50;99.90
47162;DHT22;32921;53.256;8.198;2023-07-13T00:48:22;13.40;99.90
47162;DHT22;32921;53.256;8.198;2023-07-13T00:50:52;13.50;99.90
47162;DHT22;32921;53.256;8.198;2023-07-13T00:53:19;13.60;99.90
47162;DHT22;32921;53.256;8.198;2023-07-13T00:55:46;13.60;99.90
47162;DHT22;32921;53.256;8.198;2023-07-13T00:58:12;13.70;99.90
47162;DHT22;32921;53.256;8.198;2023-07-13T01:00:38;13.80;99.90
47162;DHT22;32921;53.256;8.198;2023-07-13T01:03:04;13.80;99.90
47162;DHT22;32921;53.256;8.198;2023-07-13T01:05:32;13.80;99.90
47162;DHT22;32921;53.256;8.198;2023-07-13T01:07:59;13.70;99.90
47162;DHT22;32921;53.256;8.198;2023-07-13T01:10:26;13.70;99.90
47162;DHT22;32921;53.256;8.198;2023-07-13T01:12:52;13.60;99.90
47162;DHT22;32921;53.256;8.198;2023-07-13T01:17:58;13.50;99.90
47162;DHT22;32921;53.256;8.198;2023-07-13T01:20:24;13.50;99.90
47162;DHT22;32921;53.256;8.198;2023-07-13T01:22:50;13.50;99.90
47162;DHT22;32921;53.256;8.198;2023-07-13T01:25:16;13.50;99.90
47162;DHT22;32921;53.256;8.198;2023-07-13T01:27:41;13.50;99.90
47162;DHT22;32921;53.256;8.198;2023-07-13T01:30:07;13.50;99.90
47162;DHT22;32921;53.256;8.198;2023-07-13T01:32:33;13.50;99.90
47162;DHT22;32921;53.256;8.198;2023-07-13T01:34:59;13.40;99.90
47162;DHT22;32921;53.256;8.198;2023-07-13T01:37:26;13.40;99.90
47162;DHT22;32921;53.256;8.198;2023-07-13T01:39:52;13.50;99.90
47162;DHT22;32921;53.256;8.198;2023-07-13T01:42:18;13.30;99.90
47162;DHT22;32921;53.256;8.198;2023-07-13T01:44:43;13.30;99.90
47162;DHT22;32921;53.256;8.198;2023-07-13T01:47:10;13.30;99.90
47162;DHT22;32921;53.256;8.198;2023-07-13T01:49:35;13.30;99.90
47162;DHT22;32921;53.256;8.198;2023-07-13T01:52:01;13.40;99.90
47162;DHT22;32921;53.256;8.198;2023-07-13T01:54:26;13.40;99.90
47162;DHT22;32921;53.256;8.198;2023-07-13T01:56:52;13.40;99.90
47162;DHT22;32921;53.256;8.198;2023-07-13T01:59:18;13.30;99.90
47162;DHT22;32921;53.256;8.198;2023-07-13T02:01:43;13.30;99.90
47162;DHT22;32921;53.256;8.198;2023-07-13T02:04:09;13.30;99.90
47162;DHT22;32921;53.256;8.198;2023-07-13T02:06:36;13.30;99.90
47162;DHT22;32921;53.256;8.198;2023-07-13T02:09:01;13.40;99.90
47162;DHT22;32921;53.256;8.198;2023-07-13T02:11:27;13.40;99.90
47162;DHT22;32921;53.256;8.198;2023-07-13T02:14:01;13.40;99.90
47162;DHT22;32921;53.256;8.198;2023-07-13T02:16:27;13.40;99.90
47162;DHT22;32921;53.256;8.198;2023-07-13T02:18:53;13.40;99.90
47162;DHT22;32921;53.256;8.198;2023-07-13T02:21:20;13.40;99.90
47162;DHT22;32921;53.256;8.198;2023-07-13T02:23:45;13.50;99.90
47162;DHT22;32921;53.256;8.198;2023-07-13T02:26:11;13.50;99.90
47162;DHT22;32921;53.256;8.198;2023-07-13T02:28:36;13.40;99.90
47162;DHT22;32921;53.256;8.198;2023-07-13T02:31:07;13.50;99.90
47162;DHT22;32921;53.256;8.198;2023-07-13T02:33:32;13.50;99.90
47162;DHT22;32921;53.256;8.198;2023-07-13T02:35:58;13.50;99.90
47162;DHT22;32921;53.256;8.198;2023-07-13T02:38:24;13.60;99.90
47162;DHT22;32921;53.256;8.198;2023-07-13T02:40:49;13.60;99.90
47162;DHT22;32921;53.256;8.198;2023-07-13T02:43:15;13.70;99.90
47162;DHT22;32921;53.256;8.198;2023-07-13T02:45:44;13.80;99.90
47162;DHT22;32921;53.256;8.198;2023-07-13T02:48:09;13.90;99.90
47162;DHT22;32921;53.256;8.198;2023-07-13T02:50:35;13.90;99.90
47162;DHT22;32921;53.256;8.198;2023-07-13T02:53:00;14.00;99.90
47162;DHT22;32921;53.256;8.198;2023-07-13T02:55:26;14.10;99.90
47162;DHT22;32921;53.256;8.198;2023-07-13T02:57:51;14.10;99.90
47162;DHT22;32921;53.256;8.198;2023-07-13T03:00:17;14.10;99.90
47162;DHT22;32921;53.256;8.198;2023-07-13T03:02:43;14.20;99.90
47162;DHT22;32921;53.256;8.198;2023-07-13T03:05:09;14.20;99.90
47162;DHT22;32921;53.256;8.198;2023-07-13T03:07:38;14.20;99.90
47162;DHT22;32921;53.256;8.198;2023-07-13T03:10:05;14.30;99.90
47162;DHT22;32921;53.256;8.198;2023-07-13T03:12:32;14.20;99.90
47162;DHT22;32921;53.256;8.198;2023-07-13T03:14:58;14.30;99.90
47162;DHT22;32921;53.256;8.198;2023-07-13T03:17:23;14.30;99.90
47162;DHT22;32921;53.256;8.198;2023-07-13T03:19:49;14.30;99.90
47162;DHT22;32921;53.256;8.198;2023-07-13T03:22:17;14.30;99.90
47162;DHT22;32921;53.256;8.198;2023-07-13T03:24:43;14.30;99.90
47162;DHT22;32921;53.256;8.198;2023-07-13T03:27:09;14.30;99.90
47162;DHT22;32921;53.256;8.198;2023-07-13T03:29:34;14.40;99.90
47162;DHT22;32921;53.256;8.198;2023-07-13T03:32:00;14.40;99.90
47162;DHT22;32921;53.256;8.198;2023-07-13T03:34:26;14.40;99.90
47162;DHT22;32921;53.256;8.198;2023-07-13T03:36:54;14.40;99.90
47162;DHT22;32921;53.256;8.198;2023-07-13T03:39:20;14.50;99.90
47162;DHT22;32921;53.256;8.198;2023-07-13T03:41:46;14.50;99.90
47162;DHT22;32921;53.256;8.198;2023-07-13T03:44:12;14.50;99.90
47162;DHT22;32921;53.256;8.198;2023-07-13T03:46:37;14.50;99.90
47162;DHT22;32921;53.256;8.198;2023-07-13T03:49:04;14.40;99.90
47162;DHT22;32921;53.256;8.198;2023-07-13T03:51:31;14.50;99.90
47162;DHT22;32921;53.256;8.198;2023-07-13T03:53:56;14.60;99.90
47162;DHT22;32921;53.256;8.198;2023-07-13T03:56:22;14.60;99.90
47162;DHT22;32921;53.256;8.198;2023-07-13T03:58:49;14.60;99.90
47162;DHT22;32921;53.256;8.198;2023-07-13T04:01:17;14.70;99.90
47162;DHT22;32921;53.256;8.198;2023-07-13T04:03:44;14.70;99.90
47162;DHT22;32921;53.256;8.198;2023-07-13T04:06:20;14.80;99.90
47162;DHT22;32921;53.256;8.198;2023-07-13T04:08:48;14.80;99.90
47162;DHT22;32921;53.256;8.198;2023-07-13T04:11:14;14.80;99.90
47162;DHT22;32921;53.256;8.198;2023-07-13T04:13:40;14.80;99.90
47162;DHT22;32921;53.256;8.198;2023-07-13T04:16:05;14.90;99.90
47162;DHT22;32921;53.256;8.198;2023-07-13T04:18:31;14.90;99.90
47162;DHT22;32921;53.256;8.198;2023-07-13T04:20:57;14.90;99.90
47162;DHT22;32921;53.256;8.198;2023-07-13T04:23:22;14.90;99.90
47162;DHT22;32921;53.256;8.198;2023-07-13T04:25:49;15.10;99.90
47162;DHT22;32921;53.256;8.198;2023-07-13T04:28:19;15.10;99.90
47162;DHT22;32921;53.256;8.198;2023-07-13T04:30:45;15.10;99.90
47162;DHT22;32921;53.256;8.198;2023-07-13T04:33:10;15.10;99.90
47162;DHT22;32921;53.256;8.198;2023-07-13T04:35:36;15.20;99.90
47162;DHT22;32921;53.256;8.198;2023-07-13T04:38:02;15.30;99.90
47162;DHT22;32921;53.256;8.198;2023-07-13T04:40:29;15.30;99.90
47162;DHT22;32921;53.256;8.198;2023-07-13T04:42:55;15.40;99.90
47162;DHT22;32921;53.256;8.198;2023-07-13T04:45:21;15.50;99.90
47162;DHT22;32921;53.256;8.198;2023-07-13T04:47:49;15.50;99.90
47162;DHT22;32921;53.256;8.198;2023-07-13T04:50:14;15.60;99.90
47162;DHT22;32921;53.256;8.198;2023-07-13T04:52:51;15.60;99.90
47162;DHT22;32921;53.256;8.198;2023-07-13T04:55:17;15.70;99.90
47162;DHT22;32921;53.256;8.198;2023-07-13T04:57:43;15.70;99.90
47162;DHT22;32921;53.256;8.198;2023-07-13T05:00:09;15.80;99.90
47162;DHT22;32921;53.256;8.198;2023-07-13T05:02:38;15.80;99.90
47162;DHT22;32921;53.256;8.198;2023-07-13T05:05:04;15.90;99.90
47162;DHT22;32921;53.256;8.198;2023-07-13T05:07:29;15.90;99.90
47162;DHT22;32921;53.256;8.198;2023-07-13T05:09:55;15.90;99.90
47162;DHT22;32921;53.256;8.198;2023-07-13T05:12:21;16.00;99.90
47162;DHT22;32921;53.256;8.198;2023-07-13T05:14:47;16.00;99.90
47162;DHT22;32921;53.256;8.198;2023-07-13T05:17:14;16.10;99.90
47162;DHT22;32921;53.256;8.198;2023-07-13T05:19:39;16.20;99.90
47162;DHT22;32921;53.256;8.198;2023-07-13T05:22:05;16.20;99.90
47162;DHT22;32921;53.256;8.198;2023-07-13T05:24:31;16.30;99.90
47162;DHT22;32921;53.256;8.198;2023-07-13T05:26:56;16.30;99.90
47162;DHT22;32921;53.256;8.198;2023-07-13T05:29:22;16.40;99.90
47162;DHT22;32921;53.256;8.198;2023-07-13T05:31:49;16.40;99.90
47162;DHT22;32921;53.256;8.198;2023-07-13T05:34:15;16.40;99.90
47162;DHT22;32921;53.256;8.198;2023-07-13T05:36:41;16.40;99.90
47162;DHT22;32921;53.256;8.198;2023-07-13T05:39:06;16.40;99.90
47162;DHT22;32921;53.256;8.198;2023-07-13T05:41:32;16.40;99.90
47162;DHT22;32921;53.256;8.198;2023-07-13T05:43:57;16.40;99.90
47162;DHT22;32921;53.256;8.198;2023-07-13T05:46:23;16.50;99.90
47162;DHT22;32921;53.256;8.198;2023-07-13T05:48:49;16.50;99.90
47162;DHT22;32921;53.256;8.198;2023-07-13T05:51:14;16.50;99.90
47162;DHT22;32921;53.256;8.198;2023-07-13T05:53:40;16.60;99.90
47162;DHT22;32921;53.256;8.198;2023-07-13T05:56:05;16.70;99.90
47162;DHT22;32921;53.256;8.198;2023-07-13T05:58:31;16.80;99.90
47162;DHT22;32921;53.256;8.198;2023-07-13T06:01:05;17.00;99.90
47162;DHT22;32921;53.256;8.198;2023-07-13T06:03:31;17.00;99.90
47162;DHT22;32921;53.256;8.198;2023-07-13T06:05:57;17.20;99.90
47162;DHT22;32921;53.256;8.198;2023-07-13T06:08:25;17.60;99.90
47162;DHT22;32921;53.256;8.198;2023-07-13T06:10:51;18.20;99.90
47162;DHT22;32921;53.256;8.198;2023-07-13T06:13:17;18.70;99.90
47162;DHT22;32921;53.256;8.198;2023-07-13T06:15:50;18.90;99.90
47162;DHT22;32921;53.256;8.198;2023-07-13T06:18:16;19.30;99.90
47162;DHT22;32921;53.256;8.198;2023-07-13T06:20:42;19.70;99.90
47162;DHT22;32921;53.256;8.198;2023-07-13T06:23:07;20.00;99.90
47162;DHT22;32921;53.256;8.198;2023-07-13T06:25:33;19.90;99.90
47162;DHT22;32921;53.256;8.198;2023-07-13T06:27:59;19.40;99.90
47162;DHT22;32921;53.256;8.198;2023-07-13T06:30:26;19.20;99.90
47162;DHT22;32921;53.256;8.198;2023-07-13T06:32:52;19.40;99.90
47162;DHT22;32921;53.256;8.198;2023-07-13T06:35:17;19.70;99.90
47162;DHT22;32921;53.256;8.198;2023-07-13T06:37:43;19.70;99.90
47162;DHT22;32921;53.256;8.198;2023-07-13T06:40:09;20.30;99.90
47162;DHT22;32921;53.256;8.198;2023-07-13T06:42:35;20.60;99.90
47162;DHT22;32921;53.256;8.198;2023-07-13T06:45:00;20.50;99.90
47162;DHT22;32921;53.256;8.198;2023-07-13T06:47:26;20.80;99.90
47162;DHT22;32921;53.256;8.198;2023-07-13T06:49:52;20.90;99.90
47162;DHT22;32921;53.256;8.198;2023-07-13T06:52:18;20.80;99.90
47162;DHT22;32921;53.256;8.198;2023-07-13T06:54:43;20.50;99.90
47162;DHT22;32921;53.256;8.198;2023-07-13T06:57:09;20.30;99.90
47162;DHT22;32921;53.256;8.198;2023-07-13T06:59:34;20.50;99.90
47162;DHT22;32921;53.256;8.198;2023-07-13T07:02:00;20.70;99.90
47162;DHT22;32921;53.256;8.198;2023-07-13T07:04:25;20.80;99.90
47162;DHT22;32921;53.256;8.198;2023-07-13T07:06:52;20.90;99.90
47162;DHT22;32921;53.256;8.198;2023-07-13T07:09:18;21.30;99.90
47162;DHT22;32921;53.256;8.198;2023-07-13T07:11:43;21.50;99.90
47162;DHT22;32921;53.256;8.198;2023-07-13T07:14:09;21.40;99.90
47162;DHT22;32921;53.256;8.198;2023-07-13T07:16:34;21.40;99.90
47162;DHT22;32921;53.256;8.198;2023-07-13T07:19:00;21.50;99.90
47162;DHT22;32921;53.256;8.198;2023-07-13T07:21:25;21.60;99.90
47162;DHT22;32921;53.256;8.198;2023-07-13T07:23:52;21.70;99.90
47162;DHT22;32921;53.256;8.198;2023-07-13T07:26:17;21.90;99.90
47162;DHT22;32921;53.256;8.198;2023-07-13T07:28:43;22.20;99.90
47162;DHT22;32921;53.256;8.198;2023-07-13T07:31:09;22.30;99.90
47162;DHT22;32921;53.256;8.198;2023-07-13T07:33:34;23.10;99.90
47162;DHT22;32921;53.256;8.198;2023-07-13T07:36:01;23.60;99.90
47162;DHT22;32921;53.256;8.198;2023-07-13T07:38:26;23.70;99.90
47162;DHT22;32921;53.256;8.198;2023-07-13T07:40:52;23.40;99.90
47162;DHT22;32921;53.256;8.198;2023-07-13T07:43:18;23.40;99.90
47162;DHT22;32921;53.256;8.198;2023-07-13T07:45:45;23.90;99.90
47162;DHT22;32921;53.256;8.198;2023-07-13T07:48:11;23.20;99.90
47162;DHT22;32921;53.256;8.198;2023-07-13T07:50:36;23.20;99.90
47162;DHT22;32921;53.256;8.198;2023-07-13T07:53:02;23.40;99.90
47162;DHT22;32921;53.256;8.198;2023-07-13T07:55:28;23.60;99.90
47162;DHT22;32921;53.256;8.198;2023-07-13T07:57:55;23.70;98.50
47162;DHT22;32921;53.256;8.198;2023-07-13T08:00:21;23.80;97.20
47162;DHT22;32921;53.256;8.198;2023-07-13T08:02:47;23.90;97.80
47162;DHT22;32921;53.256;8.198;2023-07-13T08:05:13;24.40;98.10
47162;DHT22;32921;53.256;8.198;2023-07-13T08:07:39;24.60;96.20
47162;DHT22;32921;53.256;8.198;2023-07-13T08:10:06;24.50;96.50
47162;DHT22;32921;53.256;8.198;2023-07-13T08:12:36;24.70;94.00
47162;DHT22;32921;53.256;8.198;2023-07-13T08:15:03;24.70;93.70
47162;DHT22;32921;53.256;8.198;2023-07-13T08:17:29;24.80;94.40
47162;DHT22;32921;53.256;8.198;2023-07-13T08:19:55;25.50;92.90
47162;DHT22;32921;53.256;8.198;2023-07-13T08:22:20;25.30;91.60
47162;DHT22;32921;53.256;8.198;2023-07-13T08:24:46;24.50;91.30
47162;DHT22;32921;53.256;8.198;2023-07-13T08:27:13;23.70;94.50
47162;DHT22;32921;53.256;8.198;2023-07-13T08:29:39;23.60;95.60
47162;DHT22;32921;53.256;8.198;2023-07-13T08:32:06;23.70;93.70
47162;DHT22;32921;53.256;8.198;2023-07-13T08:34:34;23.90;92.80
47162;DHT22;32921;53.256;8.198;2023-07-13T08:37:00;24.60;93.70
47162;DHT22;32921;53.256;8.198;2023-07-13T08:39:26;25.00;90.80
47162;DHT22;32921;53.256;8.198;2023-07-13T08:42:01;24.90;90.20
47162;DHT22;32921;53.256;8.198;2023-07-13T08:45:13;25.20;88.20
47162;DHT22;32921;53.256;8.198;2023-07-13T08:47:39;25.30;87.40
47162;DHT22;32921;53.256;8.198;2023-07-13T08:50:12;26.00;89.10
47162;DHT22;32921;53.256;8.198;2023-07-13T08:52:41;26.50;81.80
47162;DHT22;32921;53.256;8.198;2023-07-13T08:55:35;26.40;84.80
47162;DHT22;32921;53.256;8.198;2023-07-13T08:58:13;27.20;83.00
47162;DHT22;32921;53.256;8.198;2023-07-13T09:04:21;28.20;72.20
47162;DHT22;32921;53.256;8.198;2023-07-13T09:12:17;26.60;74.80
47162;DHT22;32921;53.256;8.198;2023-07-13T09:14:50;26.70;75.40
47162;DHT22;32921;53.256;8.198;2023-07-13T09:17:41;26.50;72.50
47162;DHT22;32921;53.256;8.198;2023-07-13T09:20:31;26.50;71.80
47162;DHT22;32921;53.256;8.198;2023-07-13T09:23:01;26.70;74.20
47162;DHT22;32921;53.256;8.198;2023-07-13T09:25:35;26.00;66.90
47162;DHT22;32921;53.256;8.198;2023-07-13T09:28:12;26.00;72.80
47162;DHT22;32921;53.256;8.198;2023-07-13T09:33:21;26.70;67.00
47162;DHT22;32921;53.256;8.198;2023-07-13T09:35:48;27.50;71.70
47162;DHT22;32921;53.256;8.198;2023-07-13T09:38:16;28.40;63.60
47162;DHT22;32921;53.256;8.198;2023-07-13T09:40:57;27.40;62.20
47162;DHT22;32921;53.256;8.198;2023-07-13T09:43:25;26.30;67.90
47162;DHT22;32921;53.256;8.198;2023-07-13T09:45:50;25.40;70.50
47162;DHT22;32921;53.256;8.198;2023-07-13T09:48:17;25.00;73.70
47162;DHT22;32921;53.256;8.198;2023-07-13T09:50:43;24.40;74.00
47162;DHT22;32921;53.256;8.198;2023-07-13T09:53:15;24.00;78.80
47162;DHT22;32921;53.256;8.198;2023-07-13T09:55:43;23.50;84.40
47162;DHT22;32921;53.256;8.198;2023-07-13T10:00:40;24.90;80.00
47162;DHT22;32921;53.256;8.198;2023-07-13T10:03:17;26.20;81.50
47162;DHT22;32921;53.256;8.198;2023-07-13T10:05:45;27.30;70.80
47162;DHT22;32921;53.256;8.198;2023-07-13T10:08:37;27.70;73.00
47162;DHT22;32921;53.256;8.198;2023-07-13T10:11:25;28.20;68.90
47162;DHT22;32921;53.256;8.198;2023-07-13T10:13:54;28.70;67.80
47162;DHT22;32921;53.256;8.198;2023-07-13T10:16:26;29.20;66.70
47162;DHT22;32921;53.256;8.198;2023-07-13T10:18:58;28.60;63.50
47162;DHT22;32921;53.256;8.198;2023-07-13T10:21:30;28.50;64.40
47162;DHT22;32921;53.256;8.198;2023-07-13T10:24:09;28.10;66.80
47162;DHT22;32921;53.256;8.198;2023-07-13T10:26:41;27.90;65.50
47162;DHT22;32921;53.256;8.198;2023-07-13T10:29:11;27.70;56.20
47162;DHT22;32921;53.256;8.198;2023-07-13T10:31:39;27.00;60.50
47162;DHT22;32921;53.256;8.198;2023-07-13T10:34:09;26.30;58.60
47162;DHT22;32921;53.256;8.198;2023-07-13T10:36:48;26.10;61.50
47162;DHT22;32921;53.256;8.198;2023-07-13T10:39:20;25.70;60.90
47162;DHT22;32921;53.256;8.198;2023-07-13T10:41:53;25.10;59.10
47162;DHT22;32921;53.256;8.198;2023-07-13T10:44:27;24.30;62.30
47162;DHT22;32921;53.256;8.198;2023-07-13T10:47:05;24.00;63.20
47162;DHT22;32921;53.256;8.198;2023-07-13T10:49:33;23.30;66.50
47162;DHT22;32921;53.256;8.198;2023-07-13T10:52:00;23.10;67.00
47162;DHT22;32921;53.256;8.198;2023-07-13T10:54:33;22.50;65.40
47162;DHT22;32921;53.256;8.198;2023-07-13T10:57:20;22.10;68.70
47162;DHT22;32921;53.256;8.198;2023-07-13T10:59:48;21.80;73.00
47162;DHT22;32921;53.256;8.198;2023-07-13T11:02:25;21.30;76.40
47162;DHT22;32921;53.256;8.198;2023-07-13T11:04:53;21.00;82.50
47162;DHT22;32921;53.256;8.198;2023-07-13T11:07:30;20.40;89.20
47162;DHT22;32921;53.256;8.198;2023-07-13T11:10:04;20.30;90.10
47162;DHT22;32921;53.256;8.198;2023-07-13T11:13:03;20.20;90.40
47162;DHT22;32921;53.256;8.198;2023-07-13T11:15:45;20.40;91.00
47162;DHT22;32921;53.256;8.198;2023-07-13T11:18:22;20.70;92.40
47162;DHT22;32921;53.256;8.198;2023-07-13T11:20:49;21.10;90.20
47162;DHT22;32921;53.256;8.198;2023-07-13T11:25:42;21.70;89.30
47162;DHT22;32921;53.256;8.198;2023-07-13T11:30:43;21.90;80.00
47162;DHT22;32921;53.256;8.198;2023-07-13T11:36:05;21.60;82.40
47162;DHT22;32921;53.256;8.198;2023-07-13T11:38:45;21.40;80.60
47162;DHT22;32921;53.256;8.198;2023-07-13T11:44:17;21.40;90.20
47162;DHT22;32921;53.256;8.198;2023-07-13T11:46:48;21.50;85.90
47162;DHT22;32921;53.256;8.198;2023-07-13T11:49:17;21.40;86.90
47162;DHT22;32921;53.256;8.198;2023-07-13T11:51:44;21.90;84.20
47162;DHT22;32921;53.256;8.198;2023-07-13T11:54:32;22.50;84.00
47162;DHT22;32921;53.256;8.198;2023-07-13T11:57:25;23.30;82.70
47162;DHT22;32921;53.256;8.198;2023-07-13T11:59:52;23.80;81.20
47162;DHT22;32921;53.256;8.198;2023-07-13T12:02:34;24.20;78.80
47162;DHT22;32921;53.256;8.198;2023-07-13T12:05:02;24.70;76.70
47162;DHT22;32921;53.256;8.198;2023-07-13T12:07:31;24.60;74.20
47162;DHT22;32921;53.256;8.198;2023-07-13T12:10:16;24.60;77.90
47162;DHT22;32921;53.256;8.198;2023-07-13T12:13:00;24.90;73.20
47162;DHT22;32921;53.256;8.198;2023-07-13T12:15:39;26.20;72.60
47162;DHT22;32921;53.256;8.198;2023-07-13T12:18:34;27.40;66.90
47162;DHT22;32921;53.256;8.198;2023-07-13T12:21:00;27.10;63.00
47162;DHT22;32921;53.256;8.198;2023-07-13T12:23:32;27.10;66.20
47162;DHT22;32921;53.256;8.198;2023-07-13T12:25:59;27.40;65.00
47162;DHT22;32921;53.256;8.198;2023-07-13T12:28:33;26.80;53.80
47162;DHT22;32921;53.256;8.198;2023-07-13T12:31:05;25.20;54.30
47162;DHT22;32921;53.256;8.198;2023-07-13T12:33:33;24.50;56.90
47162;DHT22;32921;53.256;8.198;2023-07-13T12:36:03;25.00;55.00
47162;DHT22;32921;53.256;8.198;2023-07-13T12:38:30;25.80;53.60
47162;DHT22;32921;53.256;8.198;2023-07-13T12:40:56;26.30;51.20
47162;DHT22;32921;53.256;8.198;2023-07-13T12:43:23;26.60;50.60
47162;DHT22;32921;53.256;8.198;2023-07-13T12:46:02;27.80;50.10
47162;DHT22;32921;53.256;8.198;2023-07-13T12:48:27;28.70;47.70
47162;DHT22;32921;53.256;8.198;2023-07-13T12:50:54;28.60;45.70
47162;DHT22;32921;53.256;8.198;2023-07-13T12:53:22;29.50;45.80
47162;DHT22;32921;53.256;8.198;2023-07-13T12:55:56;29.30;46.60
47162;DHT22;32921;53.256;8.198;2023-07-13T12:58:39;28.30;48.10
47162;DHT22;32921;53.256;8.198;2023-07-13T13:01:13;26.40;49.40
47162;DHT22;32921;53.256;8.198;2023-07-13T13:03:49;25.10;53.80
47162;DHT22;32921;53.256;8.198;2023-07-13T13:08:46;22.70;73.90
47162;DHT22;32921;53.256;8.198;2023-07-13T13:11:14;20.80;91.00
47162;DHT22;32921;53.256;8.198;2023-07-13T13:13:41;19.60;95.40
47162;DHT22;32921;53.256;8.198;2023-07-13T13:18:39;18.80;99.90
47162;DHT22;32921;53.256;8.198;2023-07-13T13:21:05;18.50;99.90
47162;DHT22;32921;53.256;8.198;2023-07-13T13:23:30;18.30;99.90
47162;DHT22;32921;53.256;8.198;2023-07-13T13:25:57;18.20;99.90
47162;DHT22;32921;53.256;8.198;2023-07-13T13:28:23;18.10;99.90
47162;DHT22;32921;53.256;8.198;2023-07-13T13:30:50;18.30;99.90
47162;DHT22;32921;53.256;8.198;2023-07-13T13:33:18;18.10;99.90
47162;DHT22;32921;53.256;8.198;2023-07-13T13:35:44;18.20;99.90
47162;DHT22;32921;53.256;8.198;2023-07-13T13:38:14;18.30;99.90
47162;DHT22;32921;53.256;8.198;2023-07-13T13:40:44;18.10;99.90
47162;DHT22;32921;53.256;8.198;2023-07-13T13:43:17;18.10;99.90
47162;DHT22;32921;53.256;8.198;2023-07-13T13:45:44;17.80;99.90
47162;DHT22;32921;53.256;8.198;2023-07-13T13:48:18;17.40;99.90
47162;DHT22;32921;53.256;8.198;2023-07-13T13:50:44;17.20;99.90
47162;DHT22;32921;53.256;8.198;2023-07-13T13:53:11;17.00;99.90
47162;DHT22;32921;53.256;8.198;2023-07-13T13:55:39;16.80;99.90
47162;DHT22;32921;53.256;8.198;2023-07-13T13:58:04;16.70;99.90
47162;DHT22;32921;53.256;8.198;2023-07-13T14:00:30;16.60;99.90
47162;DHT22;32921;53.256;8.198;2023-07-13T14:02:56;16.60;99.90
47162;DHT22;32921;53.256;8.198;2023-07-13T14:05:25;16.60;99.90
47162;DHT22;32921;53.256;8.198;2023-07-13T14:07:55;16.40;99.90
47162;DHT22;32921;53.256;8.198;2023-07-13T14:10:22;16.40;99.90
47162;DHT22;32921;53.256;8.198;2023-07-13T14:12:51;16.40;99.90
47162;DHT22;32921;53.256;8.198;2023-07-13T14:15:22;16.50;99.90
47162;DHT22;32921;53.256;8.198;2023-07-13T14:17:48;16.60;99.90
47162;DHT22;32921;53.256;8.198;2023-07-13T14:20:17;16.70;99.90
47162;DHT22;32921;53.256;8.198;2023-07-13T14:22:43;17.30;99.90
47162;DHT22;32921;53.256;8.198;2023-07-13T14:25:13;17.70;99.90
47162;DHT22;32921;53.256;8.198;2023-07-13T14:27:40;18.00;99.90
47162;DHT22;32921;53.256;8.198;2023-07-13T14:30:12;18.60;99.90
47162;DHT22;32921;53.256;8.198;2023-07-13T14:32:39;18.80;99.90
47162;DHT22;32921;53.256;8.198;2023-07-13T14:35:05;18.80;99.90
47162;DHT22;32921;53.256;8.198;2023-07-13T14:37:30;18.80;99.90
47162;DHT22;32921;53.256;8.198;2023-07-13T14:39:56;18.40;99.90
47162;DHT22;32921;53.256;8.198;2023-07-13T14:42:21;18.30;99.90
47162;DHT22;32921;53.256;8.198;2023-07-13T14:44:47;18.00;99.90
47162;DHT22;32921;53.256;8.198;2023-07-13T14:47:12;17.50;99.90
47162;DHT22;32921;53.256;8.198;2023-07-13T14:49:40;17.50;99.90
47162;DHT22;32921;53.256;8.198;2023-07-13T14:52:18;17.70;99.90
47162;DHT22;32921;53.256;8.198;2023-07-13T14:54:46;17.60;99.90
47162;DHT22;32921;53.256;8.198;2023-07-13T14:57:20;17.70;99.90
47162;DHT22;32921;53.256;8.198;2023-07-13T14:59:47;17.70;99.90
47162;DHT22;32921;53.256;8.198;2023-07-13T15:02:25;17.60;99.90
47162;DHT22;32921;53.256;8.198;2023-07-13T15:04:52;17.60;99.90
47162;DHT22;32921;53.256;8.198;2023-07-13T15:07:18;17.70;99.90
47162;DHT22;32921;53.256;8.198;2023-07-13T15:09:46;17.50;99.90
47162;DHT22;32921;53.256;8.198;2023-07-13T15:12:13;17.40;99.90
47162;DHT22;32921;53.256;8.198;2023-07-13T15:14:39;17.50;99.90
47162;DHT22;32921;53.256;8.198;2023-07-13T15:17:05;18.10;99.90
47162;DHT22;32921;53.256;8.198;2023-07-13T15:19:31;18.70;99.90
47162;DHT22;32921;53.256;8.198;2023-07-13T15:21:57;18.30;99.90
47162;DHT22;32921;53.256;8.198;2023-07-13T15:24:23;18.50;99.90
47162;DHT22;32921;53.256;8.198;2023-07-13T15:26:49;20.10;99.90
47162;DHT22;32921;53.256;8.198;2023-07-13T15:29:16;21.90;99.90
47162;DHT22;32921;53.256;8.198;2023-07-13T15:31:41;22.60;99.90
47162;DHT22;32921;53.256;8.198;2023-07-13T15:34:26;23.40;99.90
47162;DHT22;32921;53.256;8.198;2023-07-13T15:36:52;25.00;99.90
47162;DHT22;32921;53.256;8.198;2023-07-13T15:39:17;25.60;99.90
47162;DHT22;32921;53.256;8.198;2023-07-13T15:41:44;26.20;99.90
47162;DHT22;32921;53.256;8.198;2023-07-13T15:46:51;27.90;93.30
47162;DHT22;32921;53.256;8.198;2023-07-13T15:49:17;28.40;89.80
47162;DHT22;32921;53.256;8.198;2023-07-13T15:51:42;28.10;86.60
47162;DHT22;32921;53.256;8.198;2023-07-13T15:54:13;28.40;85.50
47162;DHT22;32921;53.256;8.198;2023-07-13T15:56:40;28.30;83.50
47162;DHT22;32921;53.256;8.198;2023-07-13T15:59:09;29.20;81.70
47162;DHT22;32921;53.256;8.198;2023-07-13T16:01:37;28.50;75.00
47162;DHT22;32921;53.256;8.198;2023-07-13T16:04:03;28.90;72.90
47162;DHT22;32921;53.256;8.198;2023-07-13T16:06:32;29.00;79.50
47162;DHT22;32921;53.256;8.198;2023-07-13T16:09:00;29.50;74.80
47162;DHT22;32921;53.256;8.198;2023-07-13T16:11:30;28.80;73.60
47162;DHT22;32921;53.256;8.198;2023-07-13T16:13:58;28.50;74.20
47162;DHT22;32921;53.256;8.198;2023-07-13T16:16:29;28.60;74.20